Time;durP1;ratioP1;P1;durP2;ratioP2;P2;SDS_P1;SDS_P2;PMS_P1;PMS_P2;Temp;Humidity;BMP_temperature;BMP_pressure;BME280_temperature;BME280_humidity;BME280_pressure;Samples;Min_cycle;Max_cycle;Signal;HPM_P1;HPM_P2
2021/01/27 00:00:45;;;;;;;17.90;11.90;;;5.80;98.70;;;;;;5016812;28;20038;-70
2021/01/27 00:03:11;;;;;;;24.98;13.15;;;6.00;98.70;;;;;;5020811;28;20431;-69
2021/01/27 00:05:39;;;;;;;26.00;12.55;;;5.90;98.50;;;;;;5025750;28;20034;-70
2021/01/27 00:08:05;;;;;;;24.95;12.63;;;5.90;98.50;;;;;;5013084;28;20053;-69
2021/01/27 00:10:32;;;;;;;25.42;12.77;;;5.90;98.50;;;;;;5012617;28;20092;-69
2021/01/27 00:12:58;;;;;;;25.92;13.13;;;5.80;98.60;;;;;;5030588;28;20041;-68
2021/01/27 00:15:32;;;;;;;21.75;12.68;;;5.80;98.60;;;;;;5035307;28;20045;-69
2021/01/27 00:17:57;;;;;;;28.98;13.57;;;5.70;98.50;;;;;;5034897;28;20045;-69
2021/01/27 00:20:25;;;;;;;28.95;13.80;;;5.80;98.60;;;;;;5034178;28;20026;-70
2021/01/27 00:22:52;;;;;;;26.13;13.60;;;5.90;98.50;;;;;;5036882;28;20030;-69
2021/01/27 00:25:21;;;;;;;26.67;14.07;;;5.80;98.70;;;;;;5035289;28;20333;-69
2021/01/27 00:27:47;;;;;;;28.00;14.35;;;5.80;98.70;;;;;;5034927;28;20048;-69
2021/01/27 00:30:24;;;;;;;29.25;15.25;;;5.80;98.70;;;;;;5035021;28;20037;-69
2021/01/27 00:32:50;;;;;;;24.92;13.43;;;5.80;98.70;;;;;;5034771;28;20124;-69
2021/01/27 00:35:25;;;;;;;24.13;14.68;;;5.80;98.60;;;;;;5033390;28;20029;-69
2021/01/27 00:37:51;;;;;;;27.40;14.23;;;5.90;98.60;;;;;;5015344;28;20046;-69
2021/01/27 00:40:17;;;;;;;28.08;15.13;;;5.90;98.60;;;;;;5013936;28;20125;-69
2021/01/27 00:42:43;;;;;;;29.70;14.43;;;5.90;98.50;;;;;;5027097;28;20125;-69
2021/01/27 00:45:09;;;;;;;31.05;15.02;;;5.80;98.50;;;;;;5034593;28;20034;-69
2021/01/27 00:47:35;;;;;;;30.52;14.93;;;5.70;98.50;;;;;;5033807;28;20092;-70
2021/01/27 00:50:00;;;;;;;25.98;14.75;;;5.80;98.60;;;;;;5035324;28;20198;-69
2021/01/27 00:52:26;;;;;;;26.38;14.90;;;5.70;98.60;;;;;;5034599;28;20037;-69
2021/01/27 00:54:52;;;;;;;28.67;15.30;;;5.70;98.60;;;;;;5034747;28;20037;-70
2021/01/27 00:57:18;;;;;;;32.30;15.38;;;5.80;98.50;;;;;;5024102;28;20041;-69
2021/01/27 00:59:44;;;;;;;32.70;16.50;;;5.70;98.60;;;;;;5019090;28;20099;-69
2021/01/27 01:02:09;;;;;;;33.15;16.17;;;5.50;98.60;;;;;;5034439;28;20025;-69
2021/01/27 01:04:35;;;;;;;27.02;14.65;;;5.40;98.70;;;;;;5036081;28;20073;-69
2021/01/27 01:07:01;;;;;;;25.70;15.48;;;5.50;98.80;;;;;;5034558;28;20057;-69
2021/01/27 01:09:27;;;;;;;32.00;15.05;;;5.40;99.00;;;;;;5023253;28;20034;-69
2021/01/27 01:11:54;;;;;;;31.98;15.60;;;5.40;99.00;;;;;;5020078;28;20029;-69
2021/01/27 01:14:19;;;;;;;28.88;15.65;;;5.40;99.00;;;;;;5033321;28;20474;-70
2021/01/27 01:16:45;;;;;;;28.95;15.70;;;5.50;98.90;;;;;;5035732;28;20025;-69
2021/01/27 01:19:10;;;;;;;28.30;15.68;;;5.40;98.80;;;;;;5034183;28;20138;-69
2021/01/27 01:21:36;;;;;;;31.80;15.57;;;5.30;98.80;;;;;;5033960;28;20041;-69
2021/01/27 01:24:02;;;;;;;33.92;16.50;;;5.30;99.00;;;;;;5033575;28;20030;-69
2021/01/27 01:26:27;;;;;;;32.95;15.60;;;5.30;99.00;;;;;;5034095;28;20064;-69
2021/01/27 01:28:53;;;;;;;33.28;16.30;;;5.40;99.00;;;;;;5035557;28;20056;-69
2021/01/27 01:31:19;;;;;;;33.05;16.25;;;5.40;98.90;;;;;;5033984;28;20041;-68
2021/01/27 01:33:45;;;;;;;31.70;17.13;;;5.40;98.80;;;;;;5033761;28;20035;-69
2021/01/27 01:36:10;;;;;;;34.22;17.30;;;5.20;98.90;;;;;;5033880;28;20222;-69
2021/01/27 01:38:36;;;;;;;30.75;17.23;;;5.10;99.00;;;;;;5033605;28;20076;-69
2021/01/27 01:41:04;;;;;;;34.90;16.88;;;5.20;99.00;;;;;;5034232;28;20045;-69
2021/01/27 01:43:38;;;;;;;33.40;17.92;;;5.30;98.90;;;;;;5013180;28;20133;-69
2021/01/27 01:46:16;;;;;;;36.90;18.77;;;5.20;98.80;;;;;;5012994;28;20534;-70
2021/01/27 01:48:47;;;;;;;34.85;18.98;;;5.20;98.90;;;;;;5013874;28;20100;-69
2021/01/27 01:51:37;;;;;;;44.20;18.95;;;5.30;99.00;;;;;;5013751;28;20109;-69
2021/01/27 01:54:11;;;;;;;38.42;19.50;;;5.20;98.80;;;;;;5013792;28;20427;-69
2021/01/27 01:56:40;;;;;;;35.65;18.77;;;5.30;98.90;;;;;;5017045;28;20033;-69
2021/01/27 01:59:09;;;;;;;41.50;20.60;;;5.20;99.10;;;;;;5033389;28;20057;-69
2021/01/27 02:01:35;;;;;;;35.83;20.17;;;5.20;98.80;;;;;;5034001;28;20029;-69
2021/01/27 02:04:02;;;;;;;38.08;20.95;;;5.20;98.80;;;;;;5033246;28;20038;-69
2021/01/27 02:06:28;;;;;;;35.95;20.67;;;5.20;98.80;;;;;;5033305;28;20040;-69
2021/01/27 02:08:57;;;;;;;42.65;21.77;;;5.10;98.90;;;;;;5033363;28;20037;-70
2021/01/27 02:11:52;;;;;;;46.60;21.63;;;5.20;99.00;;;;;;5031130;28;20405;-69
2021/01/27 02:15:04;;;;;;;41.95;21.38;;;5.10;98.90;;;;;;5012938;28;20125;-68
2021/01/27 02:17:36;;;;;;;31.90;17.30;;;5.10;98.90;;;;;;5017700;28;20068;-68
2021/01/27 02:20:23;;;;;;;33.78;18.08;;;5.20;98.80;;;;;;5014620;28;20037;-68
2021/01/27 02:23:33;;;;;;;36.30;18.07;;;5.10;98.70;;;;;;5012310;28;20100;-69
2021/01/27 02:26:30;;;;;;;36.83;20.00;;;5.20;98.80;;;;;;5012467;28;20029;-69
2021/01/27 02:29:40;;;;;;;45.10;20.67;;;5.00;99.00;;;;;;5013392;28;20084;-70
2021/01/27 02:32:12;;;;;;;42.25;21.65;;;5.00;98.90;;;;;;5011958;28;20042;-69
2021/01/27 02:34:50;;;;;;;43.35;22.00;;;5.00;98.90;;;;;;5013514;28;20460;-69
2021/01/27 02:37:20;;;;;;;48.90;22.40;;;5.00;99.00;;;;;;5030572;28;20523;-69
2021/01/27 02:39:52;;;;;;;45.72;23.83;;;5.00;99.10;;;;;;5018920;28;20049;-69
2021/01/27 02:42:33;;;;;;;48.63;25.05;;;5.10;99.10;;;;;;5022582;28;20340;-69
2021/01/27 02:45:01;;;;;;;47.00;24.85;;;5.10;99.10;;;;;;5031469;28;20047;-68
2021/01/27 02:48:13;;;;;;;42.75;23.25;;;5.10;99.10;;;;;;5032432;28;20037;-69
2021/01/27 02:50:49;;;;;;;48.67;25.45;;;5.10;99.10;;;;;;5031391;28;20067;-69
2021/01/27 02:53:22;;;;;;;49.63;24.90;;;5.10;99.20;;;;;;5032611;28;20037;-69
2021/01/27 02:55:55;;;;;;;49.63;25.85;;;5.20;99.10;;;;;;5034011;28;20025;-68
2021/01/27 02:58:55;;;;;;;54.72;26.25;;;5.20;99.10;;;;;;5032528;28;20041;-69
2021/01/27 03:01:36;;;;;;;55.38;27.23;;;5.20;99.00;;;;;;5021944;28;20475;-69
2021/01/27 03:04:07;;;;;;;51.25;25.40;;;5.30;99.20;;;;;;5031041;28;20348;-69
2021/01/27 03:06:33;;;;;;;54.17;26.13;;;5.20;99.00;;;;;;5032072;28;20063;-69
2021/01/27 03:09:03;;;;;;;51.67;25.65;;;5.40;99.10;;;;;;5032348;28;20128;-69
2021/01/27 03:11:34;;;;;;;53.20;25.77;;;5.40;98.80;;;;;;5031960;28;20073;-70
2021/01/27 03:14:02;;;;;;;53.40;26.30;;;5.30;98.80;;;;;;5032656;28;20029;-70
2021/01/27 03:16:33;;;;;;;53.80;25.45;;;5.30;98.70;;;;;;5031445;28;20077;-69
2021/01/27 03:19:10;;;;;;;51.78;25.23;;;5.40;98.80;;;;;;5031808;28;20041;-69
2021/01/27 03:22:05;;;;;;;45.88;23.90;;;5.30;98.70;;;;;;5031884;28;20467;-69
2021/01/27 03:24:40;;;;;;;47.05;24.80;;;5.30;98.70;;;;;;5030525;28;20477;-69
2021/01/27 03:27:21;;;;;;;45.92;24.75;;;5.20;98.80;;;;;;5032160;28;20463;-69
2021/01/27 03:29:52;;;;;;;53.80;25.83;;;5.20;98.80;;;;;;5032098;28;20037;-69
2021/01/27 03:32:54;;;;;;;46.58;24.60;;;5.20;98.80;;;;;;5030788;28;20025;-70
2021/01/27 03:36:00;;;;;;;48.20;24.67;;;5.20;98.80;;;;;;5031576;28;20102;-69
2021/01/27 03:38:48;;;;;;;46.53;24.40;;;5.30;99.10;;;;;;5009725;28;20050;-69
2021/01/27 03:41:31;;;;;;;;;;;5.30;98.80;;;;;;5026729;28;20175;-70
2021/01/27 03:44:20;;;;;;;48.40;22.25;;;5.30;98.70;;;;;;5027587;28;19901;-69
2021/01/27 03:47:11;;;;;;;48.67;23.80;;;5.30;98.70;;;;;;5011858;28;20038;-68
2021/01/27 03:50:02;;;;;;;50.78;25.02;;;5.30;98.70;;;;;;5012009;28;20034;-69
2021/01/27 03:52:49;;;;;;;46.33;23.35;;;5.30;98.60;;;;;;5011806;28;20109;-68
2021/01/27 03:55:21;;;;;;;46.63;24.30;;;5.40;98.60;;;;;;5011726;28;20042;-69
2021/01/27 03:58:09;;;;;;;44.75;23.38;;;5.30;98.60;;;;;;5010889;28;20259;-69
2021/01/27 04:00:35;;;;;;;46.92;23.13;;;5.30;98.50;;;;;;4991404;28;20050;-69
2021/01/27 04:03:17;;;;;;;46.33;23.25;;;5.30;98.50;;;;;;5011932;28;20057;-68
2021/01/27 04:05:42;;;;;;;44.83;22.75;;;5.40;98.60;;;;;;5016881;28;20471;-68
2021/01/27 04:08:08;;;;;;;49.25;22.77;;;5.40;98.40;;;;;;5031271;28;20036;-68
2021/01/27 04:10:35;;;;;;;43.50;22.98;;;5.40;98.40;;;;;;5032928;28;20087;-68
2021/01/27 04:13:01;;;;;;;45.53;22.75;;;5.40;98.60;;;;;;5030240;28;20086;-69
2021/01/27 04:15:26;;;;;;;42.13;22.73;;;5.40;98.30;;;;;;5031418;28;20378;-68
2021/01/27 04:17:53;;;;;;;41.90;22.25;;;5.30;98.30;;;;;;5031158;28;20056;-69
2021/01/27 04:20:19;;;;;;;43.75;21.63;;;5.30;98.30;;;;;;5031389;28;20108;-68
2021/01/27 04:22:45;;;;;;;39.28;21.10;;;5.30;98.30;;;;;;5032892;28;20029;-69
2021/01/27 04:25:12;;;;;;;43.58;21.35;;;5.30;98.30;;;;;;5031214;28;20045;-69
2021/01/27 04:27:38;;;;;;;40.95;20.05;;;5.30;98.20;;;;;;5031258;28;20140;-68
2021/01/27 04:30:05;;;;;;;37.10;19.77;;;5.40;98.20;;;;;;5022185;28;20113;-70
2021/01/27 04:32:31;;;;;;;39.35;20.02;;;5.30;98.30;;;;;;5011831;28;20469;-69
2021/01/27 04:34:56;;;;;;;42.92;18.67;;;5.30;98.00;;;;;;5012956;28;20109;-69
2021/01/27 04:37:22;;;;;;;39.25;18.95;;;5.30;98.10;;;;;;5028622;28;20077;-70
2021/01/27 04:39:48;;;;;;;35.90;18.30;;;5.30;98.00;;;;;;5030988;28;20125;-69
2021/01/27 04:42:14;;;;;;;40.20;18.65;;;5.30;97.90;;;;;;5031256;28;20042;-70
2021/01/27 04:44:39;;;;;;;36.95;18.80;;;5.30;97.80;;;;;;5031097;28;20065;-69
2021/01/27 04:47:11;;;;;;;42.13;18.33;;;5.40;97.80;;;;;;5032420;28;20029;-69
2021/01/27 04:49:46;;;;;;;36.65;19.15;;;5.40;97.70;;;;;;5031485;28;20117;-68
2021/01/27 04:52:36;;;;;;;40.92;17.98;;;5.50;97.70;;;;;;5030850;28;20092;-68
2021/01/27 04:55:20;;;;;;;36.75;18.13;;;5.40;97.70;;;;;;5031002;28;20209;-68
2021/01/27 04:57:54;;;;;;;38.58;19.75;;;5.20;97.80;;;;;;5030897;28;20351;-69
2021/01/27 05:00:28;;;;;;;34.42;18.30;;;5.30;97.90;;;;;;5034651;28;20065;-69
2021/01/27 05:03:15;;;;;;;34.10;18.30;;;5.30;97.90;;;;;;5034629;28;20139;-68
2021/01/27 05:05:48;;;;;;;36.05;18.30;;;5.30;97.80;;;;;;5034489;28;20041;-68
2021/01/27 05:08:33;;;;;;;36.72;18.27;;;5.30;97.80;;;;;;5034341;28;20021;-69
2021/01/27 05:11:03;;;;;;;38.17;18.55;;;5.30;97.60;;;;;;5035890;28;20075;-69
2021/01/27 05:13:37;;;;;;;34.78;16.98;;;5.30;97.60;;;;;;5034372;28;20167;-69
2021/01/27 05:16:10;;;;;;;32.90;16.85;;;5.20;97.60;;;;;;5018033;28;20045;-68
2021/01/27 05:18:36;;;;;;;30.48;15.80;;;5.20;97.60;;;;;;5026502;28;20498;-70
2021/01/27 05:21:03;;;;;;;28.58;14.57;;;5.10;97.30;;;;;;5034099;28;20038;-69
2021/01/27 05:23:28;;;;;;;30.95;14.75;;;5.20;97.40;;;;;;5034249;28;20033;-69
2021/01/27 05:26:06;;;;;;;31.27;16.02;;;5.30;97.20;;;;;;5034726;28;20026;-69
2021/01/27 05:28:37;;;;;;;26.08;14.10;;;5.20;97.10;;;;;;5034033;28;20033;-70
2021/01/27 05:31:03;;;;;;;25.85;13.77;;;5.20;97.00;;;;;;5034017;28;20147;-68
2021/01/27 05:33:49;;;;;;;31.15;14.45;;;5.10;96.90;;;;;;5033839;28;20056;-68
2021/01/27 05:36:27;;;;;;;29.90;14.10;;;5.10;96.90;;;;;;5032692;28;20041;-69
2021/01/27 05:39:14;;;;;;;26.38;13.38;;;5.10;96.70;;;;;;5033434;28;20057;-69
2021/01/27 05:41:40;;;;;;;25.95;14.02;;;5.10;96.60;;;;;;5033857;28;20068;-69
2021/01/27 05:44:14;;;;;;;28.15;12.93;;;5.30;96.70;;;;;;5033720;28;20033;-69
2021/01/27 05:46:41;;;;;;;28.52;13.40;;;5.20;96.40;;;;;;5034265;28;20091;-69
2021/01/27 05:49:28;;;;;;;24.73;12.77;;;5.20;96.40;;;;;;5033620;28;20482;-69
2021/01/27 05:52:10;;;;;;;26.65;12.27;;;5.30;96.30;;;;;;5033412;28;20116;-69
2021/01/27 05:54:36;;;;;;;25.35;12.32;;;5.30;96.00;;;;;;5033353;28;20117;-69
2021/01/27 05:57:08;;;;;;;22.70;12.23;;;5.20;95.90;;;;;;5033516;28;20471;-70
2021/01/27 05:59:34;;;;;;;21.67;12.48;;;5.10;95.70;;;;;;5033572;28;20061;-69
2021/01/27 06:02:02;;;;;;;23.70;12.38;;;5.20;96.00;;;;;;5035000;28;20029;-68
2021/01/27 06:04:31;;;;;;;24.08;11.85;;;5.20;96.00;;;;;;5033379;28;20474;-70
2021/01/27 06:07:27;;;;;;;22.90;12.02;;;5.20;95.80;;;;;;5033381;28;20079;-68
2021/01/27 06:09:54;;;;;;;24.85;12.75;;;5.30;95.90;;;;;;5032030;28;20068;-70
2021/01/27 06:12:20;;;;;;;28.23;12.60;;;5.40;95.80;;;;;;5031858;28;20099;-70
2021/01/27 06:15:08;;;;;;;24.30;11.73;;;5.40;95.90;;;;;;5032030;28;20387;-70
2021/01/27 06:17:46;;;;;;;25.15;12.73;;;5.30;95.80;;;;;;5032956;28;20045;-70
2021/01/27 06:20:14;;;;;;;25.27;13.02;;;5.20;96.00;;;;;;5031715;28;20115;-70
2021/01/27 06:23:02;;;;;;;27.58;13.27;;;5.30;96.00;;;;;;5034503;28;20462;-70
2021/01/27 06:25:28;;;;;;;;;;;5.30;95.90;;;;;;5013671;28;20029;-69
2021/01/27 06:28:24;;;;;;;27.27;13.02;;;5.40;95.90;;;;;;5012298;28;19909;-69
2021/01/27 06:31:08;;;;;;;26.98;12.32;;;5.30;95.80;;;;;;5012722;28;20068;-70
2021/01/27 06:34:14;;;;;;;26.38;12.68;;;5.30;96.10;;;;;;5012918;28;20033;-70
2021/01/27 06:36:46;;;;;;;30.42;12.25;;;5.30;95.60;;;;;;5025610;28;20049;-71
2021/01/27 06:40:02;;;;;;;24.33;11.23;;;5.30;95.80;;;;;;5031352;28;20099;-70
2021/01/27 06:43:04;;;;;;;24.83;10.95;;;5.30;95.50;;;;;;5032846;28;20097;-69
2021/01/27 06:45:54;;;;;;;24.40;11.00;;;5.30;95.50;;;;;;5032701;28;20511;-69
2021/01/27 06:48:41;;;;;;;23.02;10.90;;;5.20;95.40;;;;;;5032239;28;20056;-69
2021/01/27 06:51:41;;;;;;;19.45;10.70;;;5.20;95.30;;;;;;5032520;28;20038;-68
2021/01/27 06:54:34;;;;;;;19.67;10.57;;;5.20;95.50;;;;;;5032295;28;20033;-69
2021/01/27 06:57:09;;;;;;;24.00;11.32;;;5.10;95.50;;;;;;5032025;28;20124;-68
2021/01/27 07:00:09;;;;;;;25.60;12.73;;;5.10;95.40;;;;;;5031857;28;20041;-68
2021/01/27 07:02:59;;;;;;;20.08;10.48;;;5.10;95.30;;;;;;5031811;28;20034;-69
2021/01/27 07:06:10;;;;;;;23.38;11.80;;;5.10;95.40;;;;;;5031901;28;20072;-69
2021/01/27 07:08:47;;;;;;;21.75;11.05;;;5.10;95.20;;;;;;5023436;28;20044;-69
2021/01/27 07:11:22;;;;;;;17.23;10.20;;;5.10;95.30;;;;;;5031841;28;20164;-69
2021/01/27 07:13:47;;;;;;;21.25;10.30;;;5.00;95.30;;;;;;5033708;28;20451;-68
2021/01/27 07:16:36;;;;;;;19.10;10.20;;;5.00;95.00;;;;;;5031274;28;20064;-68
2021/01/27 07:19:04;;;;;;;17.73;8.98;;;5.00;94.90;;;;;;5030197;28;20084;-70
2021/01/27 07:21:41;;;;;;;16.75;9.25;;;5.00;95.20;;;;;;5031107;28;20440;-68
2021/01/27 07:24:24;;;;;;;18.85;9.57;;;5.00;95.10;;;;;;5030586;28;20123;-69
2021/01/27 07:27:07;;;;;;;19.10;9.90;;;5.00;95.00;;;;;;5031947;28;20036;-69
2021/01/27 07:30:06;;;;;;;18.63;9.13;;;5.00;95.10;;;;;;5031547;28;20084;-71
2021/01/27 07:32:32;;;;;;;18.30;9.30;;;5.00;95.00;;;;;;5031766;28;20467;-70
2021/01/27 07:35:17;;;;;;;20.45;9.10;;;5.00;94.70;;;;;;5033272;28;20064;-69
2021/01/27 07:37:50;;;;;;;18.95;8.50;;;5.00;94.70;;;;;;5031439;28;20037;-70
2021/01/27 07:40:35;;;;;;;20.20;9.60;;;5.00;94.60;;;;;;5031574;28;20064;-70
2021/01/27 07:43:14;;;;;;;21.90;9.48;;;5.10;94.60;;;;;;5031961;28;20191;-69
2021/01/27 07:45:46;;;;;;;18.08;9.02;;;5.00;94.30;;;;;;5031807;28;20052;-69
2021/01/27 07:48:47;;;;;;;25.52;12.65;;;5.00;94.30;;;;;;5030946;28;20037;-68
2021/01/27 07:51:29;;;;;;;15.00;8.63;;;5.00;94.30;;;;;;5031168;28;20099;-69
2021/01/27 07:54:30;;;;;;;15.77;8.93;;;5.00;94.40;;;;;;5031241;28;20046;-67
2021/01/27 07:57:23;;;;;;;16.48;8.10;;;5.00;94.30;;;;;;5030367;28;20029;-69
2021/01/27 08:00:02;;;;;;;21.50;10.82;;;5.00;94.30;;;;;;5031266;28;20037;-69
2021/01/27 08:02:32;;;;;;;20.35;9.38;;;5.00;94.20;;;;;;5031732;28;20057;-69
2021/01/27 08:05:07;;;;;;;15.95;8.68;;;5.00;94.20;;;;;;5032841;28;20525;-68
2021/01/27 08:07:36;;;;;;;18.92;9.15;;;4.90;94.30;;;;;;5031666;28;20064;-70
2021/01/27 08:10:15;;;;;;;15.70;8.60;;;4.80;94.30;;;;;;5031458;28;20379;-70
2021/01/27 08:13:17;;;;;;;14.85;8.50;;;4.90;94.60;;;;;;5017485;28;20072;-68
2021/01/27 08:16:06;;;;;;;16.80;9.60;;;4.80;94.60;;;;;;5016605;28;20068;-69
2021/01/27 08:18:32;;;;;;;20.08;9.20;;;4.90;94.70;;;;;;5030399;28;20073;-69
2021/01/27 08:21:23;;;;;;;17.95;9.52;;;5.00;94.90;;;;;;5030988;28;20073;-69
2021/01/27 08:23:49;;;;;;;20.20;9.60;;;5.00;94.80;;;;;;5030419;28;20463;-70
2021/01/27 08:26:43;;;;;;;15.52;8.35;;;5.00;94.70;;;;;;5031349;28;20252;-69
2021/01/27 08:29:12;;;;;;;17.58;8.25;;;5.00;94.70;;;;;;5031049;28;20105;-69
2021/01/27 08:31:38;;;;;;;15.93;8.38;;;5.00;94.60;;;;;;5033566;28;20459;-69
2021/01/27 08:34:04;;;;;;;18.40;8.43;;;5.00;94.50;;;;;;5034950;28;20046;-70
2021/01/27 08:36:33;;;;;;;15.88;8.27;;;5.00;94.50;;;;;;5034837;28;20033;-69
2021/01/27 08:39:00;;;;;;;19.85;7.38;;;5.00;94.50;;;;;;5034688;28;20042;-69
2021/01/27 08:41:54;;;;;;;13.13;7.43;;;4.90;94.60;;;;;;5035120;28;20042;-71
2021/01/27 08:44:20;;;;;;;15.73;7.28;;;5.00;94.50;;;;;;5034565;28;20025;-70
2021/01/27 08:47:00;;;;;;;14.18;8.13;;;5.00;94.60;;;;;;5036893;28;20033;-70
2021/01/27 08:49:35;;;;;;;14.35;7.32;;;5.00;94.40;;;;;;5015492;28;20049;-70
2021/01/27 08:52:08;;;;;;;25.55;11.30;;;5.10;94.60;;;;;;5029691;28;20031;-69
2021/01/27 08:54:39;;;;;;;20.88;9.52;;;5.10;94.50;;;;;;5022742;28;20069;-70
2021/01/27 08:57:18;;;;;;;16.92;7.75;;;5.10;94.40;;;;;;5015120;28;20030;-71
2021/01/27 08:59:50;;;;;;;14.13;7.70;;;5.00;94.30;;;;;;5019652;28;20042;-69
2021/01/27 09:02:47;;;;;;;14.63;7.95;;;5.00;94.30;;;;;;5032797;28;20107;-71
2021/01/27 09:05:22;;;;;;;16.50;7.57;;;5.20;94.40;;;;;;5015311;28;20088;-70
2021/01/27 09:07:52;;;;;;;20.13;8.25;;;5.30;94.10;;;;;;5034897;28;20043;-70
2021/01/27 09:10:35;;;;;;;13.90;6.88;;;5.50;94.10;;;;;;5048155;28;20085;-69
2021/01/27 09:13:38;;;;;;;14.38;7.43;;;5.70;93.90;;;;;;5014675;28;20037;-69
2021/01/27 09:16:26;;;;;;;13.43;8.18;;;5.70;93.60;;;;;;5030555;28;20037;-70
2021/01/27 09:18:56;;;;;;;;;;;5.80;93.50;;;;;;5019926;28;20042;-70
2021/01/27 09:21:23;;;;;;;12.15;7.00;;;5.80;93.50;;;;;;5013354;28;19941;-70
2021/01/27 09:23:56;;;;;;;15.15;7.25;;;5.70;93.10;;;;;;5014706;28;20042;-69
2021/01/27 09:26:38;;;;;;;11.60;6.68;;;5.70;93.20;;;;;;5012960;28;20121;-69
2021/01/27 09:29:11;;;;;;;14.80;6.70;;;5.60;93.20;;;;;;5015740;28;20102;-70
2021/01/27 09:31:37;;;;;;;13.82;7.82;;;5.50;93.20;;;;;;5012648;28;20045;-70
2021/01/27 09:34:22;;;;;;;15.18;7.40;;;5.50;93.40;;;;;;5014554;28;20482;-67
2021/01/27 09:36:49;;;;;;;11.38;7.22;;;5.40;93.50;;;;;;5027720;28;20100;-69
2021/01/27 09:39:33;;;;;;;12.13;7.38;;;5.50;93.70;;;;;;5033939;28;20037;-70
2021/01/27 09:42:10;;;;;;;18.20;7.95;;;5.60;93.80;;;;;;5032252;28;20061;-69
2021/01/27 09:44:37;;;;;;;14.93;6.97;;;5.60;93.70;;;;;;5028935;28;20444;-70
2021/01/27 09:47:09;;;;;;;13.70;7.40;;;5.70;93.70;;;;;;5015453;28;20045;-71
2021/01/27 09:49:39;;;;;;;14.82;7.07;;;5.70;93.40;;;;;;5013878;28;20037;-70
2021/01/27 09:52:09;;;;;;;13.27;7.80;;;5.70;93.50;;;;;;5029883;28;20468;-69
2021/01/27 09:54:37;;;;;;;13.95;8.15;;;5.70;93.40;;;;;;5020924;28;20049;-70
2021/01/27 09:57:04;;;;;;;16.42;7.55;;;5.70;93.30;;;;;;5012274;28;20034;-69
2021/01/27 09:59:31;;;;;;;14.38;7.53;;;5.70;93.40;;;;;;5013447;28;20073;-69
2021/01/27 10:01:57;;;;;;;12.57;6.60;;;5.50;93.20;;;;;;5015088;28;20049;-70
2021/01/27 10:04:35;;;;;;;14.30;7.20;;;5.50;93.50;;;;;;5012496;28;20068;-69
2021/01/27 10:07:30;;;;;;;11.63;6.18;;;5.50;93.60;;;;;;5014004;28;20085;-69
2021/01/27 10:10:06;;;;;;;12.82;6.60;;;5.50;93.50;;;;;;5027780;28;20041;-69
2021/01/27 10:12:34;;;;;;;12.98;6.43;;;5.50;93.40;;;;;;5032882;28;20034;-70
2021/01/27 10:15:13;;;;;;;13.67;6.80;;;5.60;93.50;;;;;;5033131;28;20084;-70
2021/01/27 10:17:38;;;;;;;13.43;6.55;;;5.70;93.70;;;;;;5033514;28;20103;-69
2021/01/27 10:20:29;;;;;;;12.00;6.25;;;5.80;93.40;;;;;;5034800;28;20029;-71
2021/01/27 10:23:02;;;;;;;10.15;5.88;;;5.80;93.20;;;;;;5032366;28;20069;-71
2021/01/27 10:25:41;;;;;;;12.13;6.40;;;5.90;93.20;;;;;;5033295;28;20121;-71
2021/01/27 10:28:18;;;;;;;27.55;6.13;;;6.00;93.20;;;;;;5032067;28;20371;-69
2021/01/27 10:30:47;;;;;;;;;;;6.00;93.10;;;;;;5033020;28;20448;-69
2021/01/27 10:33:40;;;;;;;10.32;6.25;;;6.00;92.90;;;;;;5031617;28;19921;-70
2021/01/27 10:36:30;;;;;;;11.68;5.85;;;6.00;92.80;;;;;;5032784;28;20048;-71
2021/01/27 10:39:15;;;;;;;16.05;7.50;;;6.00;93.00;;;;;;5032597;28;20048;-69
2021/01/27 10:41:46;;;;;;;10.10;5.97;;;6.00;92.90;;;;;;5026786;28;20123;-69
2021/01/27 10:44:21;;;;;;;10.80;5.57;;;5.80;92.80;;;;;;5013636;28;20333;-69
2021/01/27 10:46:47;;;;;;;11.35;5.78;;;5.90;92.90;;;;;;5032798;28;20025;-70
2021/01/27 10:49:13;;;;;;;10.82;5.90;;;5.80;93.00;;;;;;5032650;28;20038;-71
2021/01/27 10:51:42;;;;;;;10.52;5.82;;;5.80;93.10;;;;;;5032475;28;20045;-70
2021/01/27 10:54:08;;;;;;;12.52;6.22;;;5.70;93.30;;;;;;5031318;28;20144;-69
2021/01/27 10:56:34;;;;;;;9.23;5.68;;;5.70;93.50;;;;;;5031076;28;20041;-70
2021/01/27 10:59:00;;;;;;;12.32;6.25;;;5.60;93.80;;;;;;5032937;28;20036;-70
2021/01/27 11:01:26;;;;;;;16.08;7.13;;;5.60;93.90;;;;;;5031194;28;20038;-69
2021/01/27 11:03:52;;;;;;;12.38;5.75;;;5.60;94.20;;;;;;5032316;28;20096;-69
2021/01/27 11:06:18;;;;;;;14.63;5.70;;;5.60;94.60;;;;;;5031777;28;20045;-69
2021/01/27 11:08:45;;;;;;;7.43;4.78;;;5.70;94.60;;;;;;5031993;28;20038;-71
2021/01/27 11:11:12;;;;;;;9.73;4.80;;;5.60;95.00;;;;;;5030959;28;20455;-70
2021/01/27 11:13:38;;;;;;;8.02;4.80;;;5.60;94.90;;;;;;5033492;28;20021;-69
2021/01/27 11:16:07;;;;;;;8.43;4.35;;;5.50;95.00;;;;;;5032531;28;20033;-70
2021/01/27 11:18:34;;;;;;;9.98;5.00;;;5.30;95.20;;;;;;5031895;28;20037;-71
2021/01/27 11:21:00;;;;;;;8.35;4.47;;;5.30;95.80;;;;;;5031971;28;20392;-70
2021/01/27 11:23:26;;;;;;;8.20;4.50;;;5.40;95.60;;;;;;5031942;28;20102;-72
2021/01/27 11:25:53;;;;;;;12.02;5.50;;;5.40;95.60;;;;;;5033164;28;20036;-69
2021/01/27 11:28:21;;;;;;;8.27;5.07;;;5.50;95.60;;;;;;5030391;28;20034;-69
2021/01/27 11:30:48;;;;;;;8.48;5.50;;;5.50;95.60;;;;;;5030307;28;20099;-75
2021/01/27 11:33:15;;;;;;;9.10;4.53;;;5.50;95.70;;;;;;5031493;28;20053;-70
2021/01/27 11:35:41;;;;;;;9.65;4.18;;;5.60;95.80;;;;;;5031613;28;20042;-72
2021/01/27 11:38:07;;;;;;;10.10;4.90;;;5.50;95.80;;;;;;5031729;28;20104;-75
2021/01/27 11:40:33;;;;;;;8.82;4.65;;;5.60;96.00;;;;;;5033256;28;20024;-71
2021/01/27 11:42:58;;;;;;;7.22;4.30;;;5.40;96.30;;;;;;5031771;28;20026;-76
2021/01/27 11:45:25;;;;;;;8.77;4.55;;;5.30;96.90;;;;;;5031927;28;20044;-69
2021/01/27 11:47:50;;;;;;;10.55;4.55;;;5.20;96.90;;;;;;5030282;28;20490;-68
2021/01/27 11:50:20;;;;;;;9.40;4.90;;;5.30;97.10;;;;;;5029690;28;20064;-68
2021/01/27 11:52:47;;;;;;;8.00;4.80;;;5.20;97.30;;;;;;5045305;28;20360;-69
2021/01/27 11:55:13;;;;;;;7.82;4.47;;;5.40;97.40;;;;;;5011690;28;20038;-68
2021/01/27 11:57:39;;;;;;;9.65;4.88;;;5.20;97.60;;;;;;5023492;28;20030;-68
2021/01/27 12:00:06;;;;;;;8.65;4.55;;;5.20;97.70;;;;;;5023431;28;20371;-68
2021/01/27 12:02:32;;;;;;;9.68;4.65;;;5.30;97.80;;;;;;5015309;28;20103;-70
2021/01/27 12:04:58;;;;;;;10.80;4.60;;;5.20;98.00;;;;;;5033245;28;20037;-68
2021/01/27 12:07:23;;;;;;;10.55;4.95;;;5.20;98.20;;;;;;5014997;28;20099;-69
2021/01/27 12:09:49;;;;;;;7.35;4.43;;;5.30;98.40;;;;;;5016068;28;20040;-71
2021/01/27 12:12:15;;;;;;;6.40;4.15;;;5.40;98.10;;;;;;5025146;28;20036;-69
2021/01/27 12:14:40;;;;;;;7.63;4.22;;;5.40;98.10;;;;;;5030639;28;20638;-69
2021/01/27 12:17:06;;;;;;;8.02;4.85;;;5.50;98.10;;;;;;5015546;28;20030;-69
2021/01/27 12:19:32;;;;;;;9.02;5.13;;;5.50;98.30;;;;;;5016792;28;20144;-68
2021/01/27 12:21:58;;;;;;;9.27;4.07;;;5.60;98.50;;;;;;5030566;28;20171;-69
2021/01/27 12:24:24;;;;;;;5.68;3.80;;;5.50;98.00;;;;;;5024914;28;20056;-68
2021/01/27 12:26:51;;;;;;;6.72;3.55;;;5.50;98.00;;;;;;5021639;28;20030;-69
2021/01/27 12:29:17;;;;;;;12.93;4.78;;;5.50;97.90;;;;;;5034093;28;20416;-69
2021/01/27 12:31:43;;;;;;;6.88;4.45;;;5.50;98.00;;;;;;5036601;28;20095;-69
2021/01/27 12:34:10;;;;;;;5.38;3.33;;;5.30;98.00;;;;;;5067458;28;20045;-70
2021/01/27 12:36:36;;;;;;;8.63;4.30;;;5.40;98.10;;;;;;5033893;28;20044;-69
2021/01/27 12:39:03;;;;;;;4.70;3.40;;;5.50;98.10;;;;;;5035135;28;20037;-70
2021/01/27 12:41:29;;;;;;;6.88;3.58;;;5.60;98.00;;;;;;5067115;28;20061;-69
2021/01/27 12:43:54;;;;;;;5.95;3.75;;;5.50;98.20;;;;;;5036760;28;20467;-70
2021/01/27 12:46:20;;;;;;;8.27;3.60;;;5.50;98.20;;;;;;5034866;28;20030;-69
2021/01/27 12:48:46;;;;;;;3.78;2.78;;;5.40;98.20;;;;;;5034855;28;20045;-69
2021/01/27 12:51:12;;;;;;;5.78;3.67;;;5.30;98.10;;;;;;5034766;28;20045;-69
2021/01/27 12:53:38;;;;;;;11.88;5.15;;;5.30;98.30;;;;;;5034852;28;20034;-69
2021/01/27 12:56:04;;;;;;;7.63;4.00;;;5.20;98.50;;;;;;5036375;28;20102;-69
2021/01/27 12:58:29;;;;;;;6.05;3.20;;;5.30;98.60;;;;;;5033415;28;20115;-70
2021/01/27 13:00:55;;;;;;;8.27;2.97;;;5.40;98.50;;;;;;5033901;28;20451;-69
2021/01/27 13:03:21;;;;;;;5.80;3.35;;;5.40;98.40;;;;;;5034784;28;20053;-70
2021/01/27 13:05:47;;;;;;;4.35;3.05;;;5.30;98.40;;;;;;5034425;28;20065;-69
2021/01/27 13:08:13;;;;;;;4.68;2.70;;;5.40;98.60;;;;;;5033585;28;20022;-69
2021/01/27 13:10:41;;;;;;;5.05;2.78;;;5.30;98.50;;;;;;5016352;28;20022;-67
2021/01/27 13:13:12;;;;;;;4.32;2.88;;;5.20;98.60;;;;;;5046672;28;20104;-70
2021/01/27 13:15:38;;;;;;;3.95;2.90;;;5.20;98.50;;;;;;5026601;28;20045;-69
2021/01/27 13:18:05;;;;;;;7.00;3.47;;;5.10;98.60;;;;;;5032896;28;20029;-69